createdAt,value
2022-10-02T00:01:51.108Z,9.76
2022-10-02T00:07:02.632Z,9.74
2022-10-02T00:12:13.083Z,9.75
2022-10-02T00:17:24.309Z,9.75
2022-10-02T00:22:40.957Z,9.73
2022-10-02T00:28:04.074Z,9.71
2022-10-02T00:33:19.544Z,9.72
2022-10-02T00:38:46.087Z,9.74
2022-10-02T00:44:10.893Z,9.76
2022-10-02T00:49:34.579Z,9.77
2022-10-02T00:55:14.350Z,9.82
2022-10-02T01:00:23.292Z,9.86
2022-10-02T01:05:31.849Z,9.88
2022-10-02T01:10:39.452Z,9.90
2022-10-02T01:15:53.278Z,9.92
2022-10-02T01:21:06.110Z,9.95
2022-10-02T01:26:15.490Z,9.99
2022-10-02T01:31:21.330Z,10.00
2022-10-02T01:36:29.059Z,10.01
2022-10-02T01:41:41.380Z,10.03
2022-10-02T01:47:00.044Z,10.06
2022-10-02T01:52:21.389Z,10.07
2022-10-02T01:57:45.565Z,10.09
2022-10-02T02:02:58.709Z,10.07
2022-10-02T02:08:16.549Z,10.09
2022-10-02T02:13:29.686Z,10.10
2022-10-02T02:18:42.112Z,10.12
2022-10-02T02:23:50.467Z,10.16
2022-10-02T02:29:02.421Z,10.20
2022-10-02T02:34:13.445Z,10.22
2022-10-02T02:39:24.749Z,10.23
2022-10-02T02:44:36.219Z,10.23
2022-10-02T02:49:51.748Z,10.20
2022-10-02T02:55:05.816Z,10.18
2022-10-02T03:00:17.025Z,10.16
2022-10-02T03:05:26.174Z,10.15
2022-10-02T03:10:47.399Z,10.14
2022-10-02T03:16:11.941Z,10.12
2022-10-02T03:21:25.160Z,10.11
2022-10-02T03:26:41.556Z,10.11
2022-10-02T03:31:50.391Z,10.12
2022-10-02T03:36:57.554Z,10.14
2022-10-02T03:42:04.540Z,10.15
2022-10-02T03:47:10.383Z,10.17
2022-10-02T03:52:20.329Z,10.19
2022-10-02T03:57:28.360Z,10.22
2022-10-02T04:02:41.095Z,10.23
2022-10-02T04:07:52.881Z,10.23
2022-10-02T04:13:09.262Z,10.24
2022-10-02T04:18:22.789Z,10.24
2022-10-02T04:23:34.784Z,10.24
2022-10-02T04:28:45.667Z,10.24
2022-10-02T04:33:52.665Z,10.24
2022-10-02T04:39:44.587Z,10.22
2022-10-02T04:45:07.348Z,10.19
2022-10-02T04:50:48.793Z,10.19
2022-10-02T04:56:21.167Z,10.19
2022-10-02T05:01:41.549Z,10.19
2022-10-02T05:07:05.297Z,10.20
2022-10-02T05:12:32.016Z,10.22
2022-10-02T05:17:56.959Z,10.27
2022-10-02T05:23:27.463Z,10.34
2022-10-02T05:28:51.219Z,10.39
2022-10-02T05:34:18.651Z,10.45
2022-10-02T05:39:28.509Z,10.50
2022-10-02T05:44:40.343Z,10.54
2022-10-02T05:49:53.054Z,10.57
2022-10-02T05:55:06.105Z,10.61
2022-10-02T06:00:25.970Z,10.65
2022-10-02T06:05:47.903Z,10.70
2022-10-02T06:11:00.244Z,10.71
2022-10-02T06:16:15.835Z,10.72
2022-10-02T06:21:32.980Z,10.75
2022-10-02T06:26:47.279Z,10.78
2022-10-02T06:32:04.886Z,10.81
2022-10-02T06:37:41.605Z,10.79
2022-10-02T06:42:59.175Z,10.76
2022-10-02T06:48:19.608Z,10.78
2022-10-02T06:53:48.714Z,10.82
2022-10-02T06:59:06.358Z,10.95
2022-10-02T07:04:42.432Z,11.11
2022-10-02T07:10:16.434Z,11.22
2022-10-02T07:15:58.109Z,11.33
2022-10-02T07:21:15.680Z,11.42
2022-10-02T07:26:36.902Z,11.48
2022-10-02T07:31:53.605Z,11.51
2022-10-02T07:37:15.548Z,11.52
2022-10-02T07:42:41.888Z,11.55
2022-10-02T07:48:20.754Z,11.59
2022-10-02T07:53:39.291Z,11.67
2022-10-02T07:58:52.379Z,11.88
2022-10-02T08:04:03.740Z,12.15
2022-10-02T08:09:17.375Z,12.27
2022-10-02T08:14:29.286Z,12.34
2022-10-02T08:19:42.338Z,12.33
2022-10-02T08:24:55.214Z,12.39
2022-10-02T08:30:06.737Z,12.47
2022-10-02T08:35:16.694Z,12.44
2022-10-02T08:41:04.596Z,12.41
2022-10-02T08:46:32.954Z,12.36
2022-10-02T08:52:15.048Z,12.31
2022-10-02T08:57:48.197Z,12.30
2022-10-02T09:03:46.120Z,12.40
2022-10-02T09:09:20.579Z,12.54
2022-10-02T09:14:47.781Z,12.63
2022-10-02T09:20:05.339Z,12.77
2022-10-02T09:25:34.545Z,12.82
2022-10-02T09:31:15.040Z,12.85
2022-10-02T09:36:51.249Z,12.87
2022-10-02T09:42:32.665Z,12.86
2022-10-02T09:48:18.358Z,12.84
2022-10-02T09:53:51.656Z,12.82
2022-10-02T09:59:39.951Z,12.82
2022-10-02T10:05:14.642Z,12.87
2022-10-02T10:10:49.774Z,13.01
2022-10-02T10:16:35.386Z,13.10
2022-10-02T10:22:31.873Z,13.20
2022-10-02T10:28:06.821Z,13.40
2022-10-02T10:33:44.404Z,13.59
2022-10-02T10:39:02.768Z,13.59
2022-10-02T10:44:37.103Z,13.54
2022-10-02T10:50:06.806Z,13.56
2022-10-02T10:55:22.410Z,13.57
2022-10-02T11:00:39.207Z,13.58
2022-10-02T11:06:27.196Z,13.57
2022-10-02T11:11:41.338Z,13.64
2022-10-02T11:17:26.288Z,13.76
2022-10-02T11:23:09.923Z,13.87
2022-10-02T11:28:51.511Z,13.92
2022-10-02T11:34:35.523Z,13.90
2022-10-02T11:40:35.360Z,13.92
2022-10-02T11:46:01.376Z,13.98
2022-10-02T11:51:22.624Z,14.00
2022-10-02T11:57:00.358Z,14.04
2022-10-02T12:02:16.519Z,14.12
2022-10-02T12:07:40.725Z,14.27
2022-10-02T12:12:57.444Z,14.42
2022-10-02T12:18:25.832Z,14.46
2022-10-02T12:24:04.978Z,14.31
2022-10-02T12:29:19.758Z,13.70
2022-10-02T12:34:41.812Z,13.23
2022-10-02T12:39:58.955Z,13.10
2022-10-02T12:45:33.687Z,13.14
2022-10-02T12:51:22.133Z,13.28
2022-10-02T12:57:01.948Z,13.49
2022-10-02T13:03:00.727Z,13.70
2022-10-02T13:08:23.488Z,13.95
2022-10-02T13:13:53.519Z,14.15
2022-10-02T13:19:16.379Z,14.35
2022-10-02T13:24:38.845Z,14.53
2022-10-02T13:30:02.554Z,14.70
2022-10-02T13:35:25.064Z,14.87
2022-10-02T13:40:40.821Z,15.00
2022-10-02T13:45:53.119Z,15.12
2022-10-02T13:51:08.251Z,15.12
2022-10-02T13:56:29.289Z,15.10
2022-10-02T14:01:50.895Z,15.10
2022-10-02T14:07:11.224Z,15.04
2022-10-02T14:12:30.409Z,14.92
2022-10-02T14:17:51.533Z,14.81
2022-10-02T14:23:13.791Z,14.70
2022-10-02T14:28:36.952Z,14.33
2022-10-02T14:34:07.995Z,13.42
2022-10-02T14:39:30.860Z,12.78
2022-10-02T14:45:06.148Z,12.39
2022-10-02T14:50:35.509Z,12.19
2022-10-02T14:56:10.257Z,12.04
2022-10-02T15:01:24.444Z,11.95
2022-10-02T15:06:47.508Z,11.91
2022-10-02T15:12:08.507Z,11.95
2022-10-02T15:17:42.617Z,12.01
2022-10-02T15:22:59.249Z,12.10
2022-10-02T15:28:35.342Z,12.16
2022-10-02T15:33:48.615Z,12.19
2022-10-02T15:39:13.744Z,12.18
2022-10-02T15:44:55.100Z,12.10
2022-10-02T15:50:15.266Z,11.97
2022-10-02T15:55:32.800Z,11.89
2022-10-02T16:01:01.971Z,11.83
2022-10-02T16:06:22.194Z,11.78
2022-10-02T16:12:03.007Z,11.73
2022-10-02T16:17:33.014Z,11.71
2022-10-02T16:22:52.370Z,11.69
2022-10-02T16:28:14.554Z,11.64
2022-10-02T16:33:28.061Z,11.48
2022-10-02T16:38:49.650Z,11.34
2022-10-02T16:44:07.744Z,11.20
2022-10-02T16:49:25.828Z,11.14
2022-10-02T16:54:45.097Z,11.04
2022-10-02T17:00:01.832Z,10.98
2022-10-02T17:05:17.691Z,10.91
2022-10-02T17:10:36.583Z,10.84
2022-10-02T17:15:50.020Z,10.76
2022-10-02T17:21:04.089Z,10.69
2022-10-02T17:26:21.940Z,10.66
2022-10-02T17:31:37.576Z,10.63
2022-10-02T17:36:58.686Z,10.61
2022-10-02T17:42:17.083Z,10.63
2022-10-02T17:47:49.895Z,10.63
2022-10-02T17:53:29.306Z,10.65
2022-10-02T17:58:47.513Z,10.64
2022-10-02T18:04:09.417Z,10.65
2022-10-02T18:09:44.108Z,10.72
2022-10-02T18:15:17.420Z,10.69
2022-10-02T18:20:35.481Z,10.64
2022-10-02T18:25:59.358Z,10.65
2022-10-02T18:31:38.549Z,10.63
2022-10-02T18:37:10.064Z,10.58
2022-10-02T18:42:49.146Z,10.58
2022-10-02T18:48:08.388Z,10.63
2022-10-02T18:53:35.781Z,10.64
2022-10-02T18:59:08.155Z,10.61
2022-10-02T19:04:37.076Z,10.62
2022-10-02T19:09:44.380Z,10.61
2022-10-02T19:14:56.220Z,10.54
2022-10-02T19:20:24.002Z,10.32
2022-10-02T19:25:31.975Z,9.97
2022-10-02T19:30:42.383Z,9.73
2022-10-02T19:35:55.213Z,9.60
2022-10-02T19:41:09.055Z,9.53
2022-10-02T19:46:29.427Z,9.47
2022-10-02T19:51:45.644Z,9.41
2022-10-02T19:56:58.508Z,9.37
2022-10-02T20:02:17.012Z,9.36
2022-10-02T20:07:27.683Z,9.34
2022-10-02T20:12:39.851Z,9.31
2022-10-02T20:17:47.597Z,9.29
2022-10-02T20:23:02.105Z,9.29
2022-10-02T20:28:21.263Z,9.29
2022-10-02T20:33:34.646Z,9.29
2022-10-02T20:38:48.477Z,9.29
2022-10-02T20:44:04.620Z,9.29
2022-10-02T20:49:41.453Z,9.29
2022-10-02T20:55:00.108Z,9.27
2022-10-02T21:00:17.897Z,9.24
2022-10-02T21:05:58.835Z,9.21
2022-10-02T21:11:21.723Z,9.18
2022-10-02T21:17:04.849Z,9.14
2022-10-02T21:22:48.993Z,9.11
2022-10-02T21:28:31.795Z,9.10
2022-10-02T21:33:47.600Z,9.07
2022-10-02T21:39:33.108Z,9.07
2022-10-02T21:45:24.856Z,9.08
2022-10-02T21:51:13.535Z,9.08
2022-10-02T21:56:52.496Z,9.04
2022-10-02T22:02:25.810Z,9.02
2022-10-02T22:07:38.559Z,8.98
2022-10-02T22:12:58.947Z,8.94
2022-10-02T22:18:16.204Z,8.91
2022-10-02T22:23:29.646Z,8.88
2022-10-02T22:28:45.662Z,8.88
2022-10-02T22:34:08.409Z,8.90
2022-10-02T22:39:22.000Z,8.90
2022-10-02T22:44:37.045Z,8.90
2022-10-02T22:49:47.996Z,8.91
2022-10-02T22:55:02.096Z,8.95
2022-10-02T23:00:17.866Z,8.99
2022-10-02T23:05:34.480Z,9.01
2022-10-02T23:10:47.156Z,9.03
2022-10-02T23:15:59.961Z,9.04
2022-10-02T23:21:23.063Z,9.05
2022-10-02T23:26:37.001Z,9.06
2022-10-02T23:31:54.038Z,9.11
2022-10-02T23:37:05.952Z,9.15
2022-10-02T23:42:16.942Z,9.20
2022-10-02T23:47:35.766Z,9.25
2022-10-02T23:53:00.504Z,9.29
2022-10-02T23:58:31.662Z,9.30
